sensor_id;sensor_type;location;lat;lon;timestamp;P1;P2;P0
49462;PMS5003;35357;51.722;0.500;2023-07-09T00:01:10;22;21;
49462;PMS5003;35357;51.722;0.500;2023-07-09T00:03:41;17;17;
49462;PMS5003;35357;51.722;0.500;2023-07-09T00:06:08;16;15;
49462;PMS5003;35357;51.722;0.500;2023-07-09T00:08:35;16;16;
49462;PMS5003;35357;51.722;0.500;2023-07-09T00:11:08;14;13;
49462;PMS5003;35357;51.722;0.500;2023-07-09T00:13:35;15;15;
49462;PMS5003;35357;51.722;0.500;2023-07-09T00:16:07;15;14;
49462;PMS5003;35357;51.722;0.500;2023-07-09T00:18:39;13;13;
49462;PMS5003;35357;51.722;0.500;2023-07-09T00:21:06;16;15;
49462;PMS5003;35357;51.722;0.500;2023-07-09T00:23:33;14;12;
49462;PMS5003;35357;51.722;0.500;2023-07-09T00:26:00;14;14;
49462;PMS5003;35357;51.722;0.500;2023-07-09T00:28:28;14;14;
49462;PMS5003;35357;51.722;0.500;2023-07-09T00:30:55;13;13;
49462;PMS5003;35357;51.722;0.500;2023-07-09T00:33:22;16;14;
49462;PMS5003;35357;51.722;0.500;2023-07-09T00:35:50;13;12;
49462;PMS5003;35357;51.722;0.500;2023-07-09T00:38:17;14;13;
49462;PMS5003;35357;51.722;0.500;2023-07-09T00:40:47;16;14;
49462;PMS5003;35357;51.722;0.500;2023-07-09T00:43:28;16;16;
49462;PMS5003;35357;51.722;0.500;2023-07-09T00:46:14;15;13;
49462;PMS5003;35357;51.722;0.500;2023-07-09T00:49:39;16;16;
49462;PMS5003;35357;51.722;0.500;2023-07-09T00:52:19;11;11;
49462;PMS5003;35357;51.722;0.500;2023-07-09T00:54:51;16;16;
49462;PMS5003;35357;51.722;0.500;2023-07-09T00:57:20;12;12;
49462;PMS5003;35357;51.722;0.500;2023-07-09T00:59:52;13;13;
49462;PMS5003;35357;51.722;0.500;2023-07-09T01:02:23;10;10;
49462;PMS5003;35357;51.722;0.500;2023-07-09T01:04:50;12;12;
49462;PMS5003;35357;51.722;0.500;2023-07-09T01:07:20;13;13;
49462;PMS5003;35357;51.722;0.500;2023-07-09T01:09:47;12;11;
49462;PMS5003;35357;51.722;0.500;2023-07-09T01:12:14;12;12;
49462;PMS5003;35357;51.722;0.500;2023-07-09T01:14:45;14;13;
49462;PMS5003;35357;51.722;0.500;2023-07-09T01:17:12;14;13;
49462;PMS5003;35357;51.722;0.500;2023-07-09T01:19:40;16;13;
49462;PMS5003;35357;51.722;0.500;2023-07-09T01:22:10;16;16;
49462;PMS5003;35357;51.722;0.500;2023-07-09T01:24:49;14;12;
49462;PMS5003;35357;51.722;0.500;2023-07-09T01:27:25;11;11;
49462;PMS5003;35357;51.722;0.500;2023-07-09T01:29:55;12;11;
49462;PMS5003;35357;51.722;0.500;2023-07-09T01:32:23;13;13;
49462;PMS5003;35357;51.722;0.500;2023-07-09T01:34:52;12;12;
49462;PMS5003;35357;51.722;0.500;2023-07-09T01:37:22;13;13;
49462;PMS5003;35357;51.722;0.500;2023-07-09T01:39:53;14;13;
49462;PMS5003;35357;51.722;0.500;2023-07-09T01:42:22;12;12;
49462;PMS5003;35357;51.722;0.500;2023-07-09T01:44:52;15;14;
49462;PMS5003;35357;51.722;0.500;2023-07-09T01:47:21;14;12;
49462;PMS5003;35357;51.722;0.500;2023-07-09T01:49:50;15;14;
49462;PMS5003;35357;51.722;0.500;2023-07-09T01:52:17;13;12;
49462;PMS5003;35357;51.722;0.500;2023-07-09T01:54:45;15;15;
49462;PMS5003;35357;51.722;0.500;2023-07-09T01:57:13;13;13;
49462;PMS5003;35357;51.722;0.500;2023-07-09T01:59:43;11;10;
49462;PMS5003;35357;51.722;0.500;2023-07-09T02:02:10;13;12;
49462;PMS5003;35357;51.722;0.500;2023-07-09T02:04:38;15;15;
49462;PMS5003;35357;51.722;0.500;2023-07-09T02:07:05;11;11;
49462;PMS5003;35357;51.722;0.500;2023-07-09T02:09:32;15;13;
49462;PMS5003;35357;51.722;0.500;2023-07-09T02:11:59;15;14;
49462;PMS5003;35357;51.722;0.500;2023-07-09T02:14:26;14;14;
49462;PMS5003;35357;51.722;0.500;2023-07-09T02:16:53;11;11;
49462;PMS5003;35357;51.722;0.500;2023-07-09T02:19:20;14;12;
49462;PMS5003;35357;51.722;0.500;2023-07-09T02:21:47;12;12;
49462;PMS5003;35357;51.722;0.500;2023-07-09T02:24:15;13;13;
49462;PMS5003;35357;51.722;0.500;2023-07-09T02:26:41;14;14;
49462;PMS5003;35357;51.722;0.500;2023-07-09T02:29:08;11;11;
49462;PMS5003;35357;51.722;0.500;2023-07-09T02:31:35;13;12;
49462;PMS5003;35357;51.722;0.500;2023-07-09T02:34:02;12;11;
49462;PMS5003;35357;51.722;0.500;2023-07-09T02:36:28;13;13;
49462;PMS5003;35357;51.722;0.500;2023-07-09T02:38:55;13;13;
49462;PMS5003;35357;51.722;0.500;2023-07-09T02:41:22;10;10;
49462;PMS5003;35357;51.722;0.500;2023-07-09T02:43:50;10;9;
49462;PMS5003;35357;51.722;0.500;2023-07-09T02:46:17;10;10;
49462;PMS5003;35357;51.722;0.500;2023-07-09T02:48:45;9;8;
49462;PMS5003;35357;51.722;0.500;2023-07-09T02:51:11;12;12;
49462;PMS5003;35357;51.722;0.500;2023-07-09T02:53:38;9;9;
49462;PMS5003;35357;51.722;0.500;2023-07-09T02:56:05;9;9;
49462;PMS5003;35357;51.722;0.500;2023-07-09T02:58:32;10;10;
49462;PMS5003;35357;51.722;0.500;2023-07-09T03:00:58;13;13;
49462;PMS5003;35357;51.722;0.500;2023-07-09T03:03:25;11;10;
49462;PMS5003;35357;51.722;0.500;2023-07-09T03:05:53;11;10;
49462;PMS5003;35357;51.722;0.500;2023-07-09T03:08:19;12;12;
49462;PMS5003;35357;51.722;0.500;2023-07-09T03:10:46;12;12;
49462;PMS5003;35357;51.722;0.500;2023-07-09T03:13:13;15;12;
49462;PMS5003;35357;51.722;0.500;2023-07-09T03:15:40;13;12;
49462;PMS5003;35357;51.722;0.500;2023-07-09T03:18:07;13;13;
49462;PMS5003;35357;51.722;0.500;2023-07-09T03:20:35;12;12;
49462;PMS5003;35357;51.722;0.500;2023-07-09T03:23:02;11;11;
49462;PMS5003;35357;51.722;0.500;2023-07-09T03:25:29;12;12;
49462;PMS5003;35357;51.722;0.500;2023-07-09T03:27:56;11;11;
49462;PMS5003;35357;51.722;0.500;2023-07-09T03:30:23;9;9;
49462;PMS5003;35357;51.722;0.500;2023-07-09T03:32:50;10;10;
49462;PMS5003;35357;51.722;0.500;2023-07-09T03:35:17;11;10;
49462;PMS5003;35357;51.722;0.500;2023-07-09T03:37:45;10;10;
49462;PMS5003;35357;51.722;0.500;2023-07-09T03:40:19;10;10;
49462;PMS5003;35357;51.722;0.500;2023-07-09T03:42:48;10;9;
49462;PMS5003;35357;51.722;0.500;2023-07-09T03:45:15;11;9;
49462;PMS5003;35357;51.722;0.500;2023-07-09T03:47:42;10;10;
49462;PMS5003;35357;51.722;0.500;2023-07-09T03:50:09;8;8;
49462;PMS5003;35357;51.722;0.500;2023-07-09T03:52:37;8;8;
49462;PMS5003;35357;51.722;0.500;2023-07-09T03:55:05;9;8;
49462;PMS5003;35357;51.722;0.500;2023-07-09T03:57:33;8;8;
49462;PMS5003;35357;51.722;0.500;2023-07-09T04:00:01;8;8;
49462;PMS5003;35357;51.722;0.500;2023-07-09T04:02:30;10;10;
49462;PMS5003;35357;51.722;0.500;2023-07-09T04:04:58;12;11;
49462;PMS5003;35357;51.722;0.500;2023-07-09T04:07:24;10;10;
49462;PMS5003;35357;51.722;0.500;2023-07-09T04:09:51;7;7;
49462;PMS5003;35357;51.722;0.500;2023-07-09T04:12:18;7;7;
49462;PMS5003;35357;51.722;0.500;2023-07-09T04:14:45;10;9;
49462;PMS5003;35357;51.722;0.500;2023-07-09T04:17:11;7;7;
49462;PMS5003;35357;51.722;0.500;2023-07-09T04:19:39;7;7;
49462;PMS5003;35357;51.722;0.500;2023-07-09T04:22:05;10;10;
49462;PMS5003;35357;51.722;0.500;2023-07-09T04:24:32;9;9;
49462;PMS5003;35357;51.722;0.500;2023-07-09T04:26:59;6;6;
49462;PMS5003;35357;51.722;0.500;2023-07-09T04:29:26;8;7;
49462;PMS5003;35357;51.722;0.500;2023-07-09T04:31:53;8;7;
49462;PMS5003;35357;51.722;0.500;2023-07-09T04:34:20;6;6;
49462;PMS5003;35357;51.722;0.500;2023-07-09T04:36:46;8;7;
49462;PMS5003;35357;51.722;0.500;2023-07-09T04:39:13;8;8;
49462;PMS5003;35357;51.722;0.500;2023-07-09T04:41:40;7;7;
49462;PMS5003;35357;51.722;0.500;2023-07-09T04:44:07;10;10;
49462;PMS5003;35357;51.722;0.500;2023-07-09T04:46:34;13;13;
49462;PMS5003;35357;51.722;0.500;2023-07-09T04:49:01;7;7;
49462;PMS5003;35357;51.722;0.500;2023-07-09T04:51:27;11;10;
49462;PMS5003;35357;51.722;0.500;2023-07-09T04:53:54;9;9;
49462;PMS5003;35357;51.722;0.500;2023-07-09T04:56:21;9;9;
49462;PMS5003;35357;51.722;0.500;2023-07-09T04:58:49;11;10;
49462;PMS5003;35357;51.722;0.500;2023-07-09T05:01:16;8;8;
49462;PMS5003;35357;51.722;0.500;2023-07-09T05:03:43;9;9;
49462;PMS5003;35357;51.722;0.500;2023-07-09T05:06:10;11;10;
49462;PMS5003;35357;51.722;0.500;2023-07-09T05:08:37;14;9;
49462;PMS5003;35357;51.722;0.500;2023-07-09T05:11:04;9;9;
49462;PMS5003;35357;51.722;0.500;2023-07-09T05:13:32;10;10;
49462;PMS5003;35357;51.722;0.500;2023-07-09T05:15:59;9;9;
49462;PMS5003;35357;51.722;0.500;2023-07-09T05:18:26;9;8;
49462;PMS5003;35357;51.722;0.500;2023-07-09T05:20:52;11;11;
49462;PMS5003;35357;51.722;0.500;2023-07-09T05:23:20;11;10;
49462;PMS5003;35357;51.722;0.500;2023-07-09T05:25:55;9;9;
49462;PMS5003;35357;51.722;0.500;2023-07-09T05:28:23;10;8;
49462;PMS5003;35357;51.722;0.500;2023-07-09T05:30:50;10;10;
49462;PMS5003;35357;51.722;0.500;2023-07-09T05:33:18;6;6;
49462;PMS5003;35357;51.722;0.500;2023-07-09T05:35:45;8;7;
49462;PMS5003;35357;51.722;0.500;2023-07-09T05:38:13;5;5;
49462;PMS5003;35357;51.722;0.500;2023-07-09T05:40:41;7;7;
49462;PMS5003;35357;51.722;0.500;2023-07-09T05:43:08;8;7;
49462;PMS5003;35357;51.722;0.500;2023-07-09T05:45:38;7;7;
49462;PMS5003;35357;51.722;0.500;2023-07-09T05:48:04;8;7;
49462;PMS5003;35357;51.722;0.500;2023-07-09T05:50:32;7;7;
49462;PMS5003;35357;51.722;0.500;2023-07-09T05:53:01;7;7;
49462;PMS5003;35357;51.722;0.500;2023-07-09T05:55:28;6;6;
49462;PMS5003;35357;51.722;0.500;2023-07-09T05:57:55;8;6;
49462;PMS5003;35357;51.722;0.500;2023-07-09T06:00:22;6;6;
49462;PMS5003;35357;51.722;0.500;2023-07-09T06:02:50;5;5;
49462;PMS5003;35357;51.722;0.500;2023-07-09T06:05:17;7;5;
49462;PMS5003;35357;51.722;0.500;2023-07-09T06:07:44;6;6;
49462;PMS5003;35357;51.722;0.500;2023-07-09T06:10:11;6;6;
49462;PMS5003;35357;51.722;0.500;2023-07-09T06:12:38;7;7;
49462;PMS5003;35357;51.722;0.500;2023-07-09T06:15:06;6;6;
49462;PMS5003;35357;51.722;0.500;2023-07-09T06:17:33;5;5;
49462;PMS5003;35357;51.722;0.500;2023-07-09T06:20:00;7;7;
49462;PMS5003;35357;51.722;0.500;2023-07-09T06:22:27;5;5;
49462;PMS5003;35357;51.722;0.500;2023-07-09T06:24:54;3;3;
49462;PMS5003;35357;51.722;0.500;2023-07-09T06:27:21;6;6;
49462;PMS5003;35357;51.722;0.500;2023-07-09T06:29:49;7;7;
49462;PMS5003;35357;51.722;0.500;2023-07-09T06:32:15;7;7;
49462;PMS5003;35357;51.722;0.500;2023-07-09T06:34:42;7;7;
49462;PMS5003;35357;51.722;0.500;2023-07-09T06:37:09;8;7;
49462;PMS5003;35357;51.722;0.500;2023-07-09T06:39:36;7;7;
49462;PMS5003;35357;51.722;0.500;2023-07-09T06:42:04;7;6;
49462;PMS5003;35357;51.722;0.500;2023-07-09T06:44:31;5;5;
49462;PMS5003;35357;51.722;0.500;2023-07-09T06:46:58;6;6;
49462;PMS5003;35357;51.722;0.500;2023-07-09T06:49:25;7;7;
49462;PMS5003;35357;51.722;0.500;2023-07-09T06:51:52;5;5;
49462;PMS5003;35357;51.722;0.500;2023-07-09T06:54:19;7;7;
49462;PMS5003;35357;51.722;0.500;2023-07-09T06:56:45;5;5;
49462;PMS5003;35357;51.722;0.500;2023-07-09T06:59:13;5;5;
49462;PMS5003;35357;51.722;0.500;2023-07-09T07:01:39;6;5;
49462;PMS5003;35357;51.722;0.500;2023-07-09T07:04:07;4;3;
49462;PMS5003;35357;51.722;0.500;2023-07-09T07:06:33;5;5;
49462;PMS5003;35357;51.722;0.500;2023-07-09T07:09:00;3;3;
49462;PMS5003;35357;51.722;0.500;2023-07-09T07:11:27;5;5;
49462;PMS5003;35357;51.722;0.500;2023-07-09T07:13:55;3;3;
49462;PMS5003;35357;51.722;0.500;2023-07-09T07:16:22;3;3;
49462;PMS5003;35357;51.722;0.500;2023-07-09T07:18:50;4;3;
49462;PMS5003;35357;51.722;0.500;2023-07-09T07:21:17;5;5;
49462;PMS5003;35357;51.722;0.500;2023-07-09T07:23:44;5;5;
49462;PMS5003;35357;51.722;0.500;2023-07-09T07:26:11;5;5;
49462;PMS5003;35357;51.722;0.500;2023-07-09T07:28:37;5;5;
49462;PMS5003;35357;51.722;0.500;2023-07-09T07:31:05;5;5;
49462;PMS5003;35357;51.722;0.500;2023-07-09T07:33:34;4;4;
49462;PMS5003;35357;51.722;0.500;2023-07-09T07:36:03;4;4;
49462;PMS5003;35357;51.722;0.500;2023-07-09T07:38:30;7;5;
49462;PMS5003;35357;51.722;0.500;2023-07-09T07:40:57;5;5;
49462;PMS5003;35357;51.722;0.500;2023-07-09T07:43:24;5;4;
49462;PMS5003;35357;51.722;0.500;2023-07-09T07:45:51;4;4;
49462;PMS5003;35357;51.722;0.500;2023-07-09T07:48:18;3;3;
49462;PMS5003;35357;51.722;0.500;2023-07-09T07:50:45;5;5;
49462;PMS5003;35357;51.722;0.500;2023-07-09T07:53:13;5;4;
49462;PMS5003;35357;51.722;0.500;2023-07-09T07:55:40;6;4;
49462;PMS5003;35357;51.722;0.500;2023-07-09T07:58:08;6;5;
49462;PMS5003;35357;51.722;0.500;2023-07-09T08:00:37;4;4;
49462;PMS5003;35357;51.722;0.500;2023-07-09T08:03:05;7;6;
49462;PMS5003;35357;51.722;0.500;2023-07-09T08:05:32;4;4;
49462;PMS5003;35357;51.722;0.500;2023-07-09T08:07:59;6;5;
49462;PMS5003;35357;51.722;0.500;2023-07-09T08:10:26;3;3;
49462;PMS5003;35357;51.722;0.500;2023-07-09T08:12:53;4;4;
49462;PMS5003;35357;51.722;0.500;2023-07-09T08:15:21;3;3;
49462;PMS5003;35357;51.722;0.500;2023-07-09T08:17:49;4;4;
49462;PMS5003;35357;51.722;0.500;2023-07-09T08:20:17;5;4;
49462;PMS5003;35357;51.722;0.500;2023-07-09T08:22:44;2;2;
49462;PMS5003;35357;51.722;0.500;2023-07-09T08:25:11;4;4;
49462;PMS5003;35357;51.722;0.500;2023-07-09T08:27:39;3;3;
49462;PMS5003;35357;51.722;0.500;2023-07-09T08:30:06;4;4;
49462;PMS5003;35357;51.722;0.500;2023-07-09T08:32:34;5;5;
49462;PMS5003;35357;51.722;0.500;2023-07-09T08:35:00;3;3;
49462;PMS5003;35357;51.722;0.500;2023-07-09T08:37:28;6;4;
49462;PMS5003;35357;51.722;0.500;2023-07-09T08:39:55;7;6;
49462;PMS5003;35357;51.722;0.500;2023-07-09T08:42:24;4;4;
49462;PMS5003;35357;51.722;0.500;2023-07-09T08:45:00;4;4;
49462;PMS5003;35357;51.722;0.500;2023-07-09T08:47:41;3;3;
49462;PMS5003;35357;51.722;0.500;2023-07-09T08:50:16;3;3;
49462;PMS5003;35357;51.722;0.500;2023-07-09T08:52:47;3;3;
49462;PMS5003;35357;51.722;0.500;2023-07-09T08:55:17;4;4;
49462;PMS5003;35357;51.722;0.500;2023-07-09T08:57:47;4;4;
49462;PMS5003;35357;51.722;0.500;2023-07-09T09:00:17;7;7;
49462;PMS5003;35357;51.722;0.500;2023-07-09T09:02:54;2;2;
49462;PMS5003;35357;51.722;0.500;2023-07-09T09:05:25;2;2;
49462;PMS5003;35357;51.722;0.500;2023-07-09T09:07:55;4;3;
49462;PMS5003;35357;51.722;0.500;2023-07-09T09:10:27;4;3;
49462;PMS5003;35357;51.722;0.500;2023-07-09T09:13:03;3;3;
49462;PMS5003;35357;51.722;0.500;2023-07-09T09:15:36;3;3;
49462;PMS5003;35357;51.722;0.500;2023-07-09T09:18:16;3;3;
49462;PMS5003;35357;51.722;0.500;2023-07-09T09:20:46;2;2;
49462;PMS5003;35357;51.722;0.500;2023-07-09T09:23:18;3;3;
49462;PMS5003;35357;51.722;0.500;2023-07-09T09:25:48;4;4;
49462;PMS5003;35357;51.722;0.500;2023-07-09T09:28:18;4;4;
49462;PMS5003;35357;51.722;0.500;2023-07-09T09:30:46;4;4;
49462;PMS5003;35357;51.722;0.500;2023-07-09T09:33:13;4;4;
49462;PMS5003;35357;51.722;0.500;2023-07-09T09:35:44;4;4;
49462;PMS5003;35357;51.722;0.500;2023-07-09T09:38:12;9;7;
49462;PMS5003;35357;51.722;0.500;2023-07-09T09:40:43;5;5;
49462;PMS5003;35357;51.722;0.500;2023-07-09T09:43:11;6;6;
49462;PMS5003;35357;51.722;0.500;2023-07-09T09:45:40;6;6;
49462;PMS5003;35357;51.722;0.500;2023-07-09T09:48:13;6;6;
49462;PMS5003;35357;51.722;0.500;2023-07-09T09:50:42;6;6;
49462;PMS5003;35357;51.722;0.500;2023-07-09T09:53:16;8;6;
49462;PMS5003;35357;51.722;0.500;2023-07-09T09:55:46;7;7;
49462;PMS5003;35357;51.722;0.500;2023-07-09T09:58:14;6;6;
49462;PMS5003;35357;51.722;0.500;2023-07-09T10:00:47;5;5;
49462;PMS5003;35357;51.722;0.500;2023-07-09T10:03:16;6;6;
49462;PMS5003;35357;51.722;0.500;2023-07-09T10:05:44;5;5;
49462;PMS5003;35357;51.722;0.500;2023-07-09T10:08:17;6;6;
49462;PMS5003;35357;51.722;0.500;2023-07-09T10:10:56;4;4;
49462;PMS5003;35357;51.722;0.500;2023-07-09T10:13:32;8;8;
49462;PMS5003;35357;51.722;0.500;2023-07-09T10:16:08;7;6;
49462;PMS5003;35357;51.722;0.500;2023-07-09T10:18:46;3;2;
49462;PMS5003;35357;51.722;0.500;2023-07-09T10:21:21;3;3;
49462;PMS5003;35357;51.722;0.500;2023-07-09T10:23:55;5;5;
49462;PMS5003;35357;51.722;0.500;2023-07-09T10:26:31;4;4;
49462;PMS5003;35357;51.722;0.500;2023-07-09T10:29:07;6;6;
49462;PMS5003;35357;51.722;0.500;2023-07-09T10:31:53;6;6;
49462;PMS5003;35357;51.722;0.500;2023-07-09T10:34:34;3;3;
49462;PMS5003;35357;51.722;0.500;2023-07-09T10:37:21;6;6;
49462;PMS5003;35357;51.722;0.500;2023-07-09T10:40:00;5;5;
49462;PMS5003;35357;51.722;0.500;2023-07-09T10:42:34;6;6;
49462;PMS5003;35357;51.722;0.500;2023-07-09T10:45:08;5;5;
49462;PMS5003;35357;51.722;0.500;2023-07-09T10:47:38;4;4;
49462;PMS5003;35357;51.722;0.500;2023-07-09T10:50:14;6;6;
49462;PMS5003;35357;51.722;0.500;2023-07-09T10:52:46;7;6;
49462;PMS5003;35357;51.722;0.500;2023-07-09T10:55:20;4;4;
49462;PMS5003;35357;51.722;0.500;2023-07-09T10:57:57;5;4;
49462;PMS5003;35357;51.722;0.500;2023-07-09T11:00:32;3;3;
49462;PMS5003;35357;51.722;0.500;2023-07-09T11:03:02;2;2;
49462;PMS5003;35357;51.722;0.500;2023-07-09T11:05:36;4;4;
49462;PMS5003;35357;51.722;0.500;2023-07-09T11:08:06;2;2;
49462;PMS5003;35357;51.722;0.500;2023-07-09T11:10:39;2;2;
49462;PMS5003;35357;51.722;0.500;2023-07-09T11:13:14;1;1;
49462;PMS5003;35357;51.722;0.500;2023-07-09T11:15:45;3;3;
49462;PMS5003;35357;51.722;0.500;2023-07-09T11:18:16;5;4;
49462;PMS5003;35357;51.722;0.500;2023-07-09T11:20:47;2;2;
49462;PMS5003;35357;51.722;0.500;2023-07-09T11:23:22;2;2;
49462;PMS5003;35357;51.722;0.500;2023-07-09T11:26:00;2;2;
49462;PMS5003;35357;51.722;0.500;2023-07-09T11:28:32;2;2;
49462;PMS5003;35357;51.722;0.500;2023-07-09T11:31:05;1;1;
49462;PMS5003;35357;51.722;0.500;2023-07-09T11:33:34;2;2;
49462;PMS5003;35357;51.722;0.500;2023-07-09T11:36:12;2;2;
49462;PMS5003;35357;51.722;0.500;2023-07-09T11:38:49;1;0;
49462;PMS5003;35357;51.722;0.500;2023-07-09T11:41:26;3;3;
49462;PMS5003;35357;51.722;0.500;2023-07-09T11:44:03;3;2;
49462;PMS5003;35357;51.722;0.500;2023-07-09T11:46:40;2;1;
49462;PMS5003;35357;51.722;0.500;2023-07-09T11:49:17;2;2;
49462;PMS5003;35357;51.722;0.500;2023-07-09T11:51:46;2;2;
49462;PMS5003;35357;51.722;0.500;2023-07-09T11:54:19;2;2;
49462;PMS5003;35357;51.722;0.500;2023-07-09T11:56:53;1;1;
49462;PMS5003;35357;51.722;0.500;2023-07-09T11:59:20;2;2;
49462;PMS5003;35357;51.722;0.500;2023-07-09T12:01:49;3;2;
49462;PMS5003;35357;51.722;0.500;2023-07-09T12:04:19;0;0;
49462;PMS5003;35357;51.722;0.500;2023-07-09T12:06:47;2;2;
49462;PMS5003;35357;51.722;0.500;2023-07-09T12:09:16;0;0;
49462;PMS5003;35357;51.722;0.500;2023-07-09T12:11:46;2;1;
49462;PMS5003;35357;51.722;0.500;2023-07-09T12:14:15;0;0;
49462;PMS5003;35357;51.722;0.500;2023-07-09T12:16:44;3;3;
49462;PMS5003;35357;51.722;0.500;2023-07-09T12:19:14;2;2;
49462;PMS5003;35357;51.722;0.500;2023-07-09T12:21:45;3;3;
49462;PMS5003;35357;51.722;0.500;2023-07-09T12:24:17;2;2;
49462;PMS5003;35357;51.722;0.500;2023-07-09T12:26:47;3;2;
49462;PMS5003;35357;51.722;0.500;2023-07-09T12:29:14;1;1;
49462;PMS5003;35357;51.722;0.500;2023-07-09T12:31:42;1;1;
49462;PMS5003;35357;51.722;0.500;2023-07-09T12:34:11;2;2;
49462;PMS5003;35357;51.722;0.500;2023-07-09T12:36:40;5;4;
49462;PMS5003;35357;51.722;0.500;2023-07-09T12:39:12;2;2;
49462;PMS5003;35357;51.722;0.500;2023-07-09T12:41:41;1;1;
49462;PMS5003;35357;51.722;0.500;2023-07-09T12:44:14;2;2;
49462;PMS5003;35357;51.722;0.500;2023-07-09T12:46:44;2;1;
49462;PMS5003;35357;51.722;0.500;2023-07-09T12:49:19;2;2;
49462;PMS5003;35357;51.722;0.500;2023-07-09T12:51:48;1;1;
49462;PMS5003;35357;51.722;0.500;2023-07-09T12:54:16;1;1;
49462;PMS5003;35357;51.722;0.500;2023-07-09T12:56:45;2;1;
49462;PMS5003;35357;51.722;0.500;2023-07-09T12:59:15;3;3;
49462;PMS5003;35357;51.722;0.500;2023-07-09T13:01:47;2;2;
49462;PMS5003;35357;51.722;0.500;2023-07-09T13:04:16;3;3;
49462;PMS5003;35357;51.722;0.500;2023-07-09T13:06:44;2;2;
49462;PMS5003;35357;51.722;0.500;2023-07-09T13:09:14;2;2;
49462;PMS5003;35357;51.722;0.500;2023-07-09T13:11:45;4;3;
49462;PMS5003;35357;51.722;0.500;2023-07-09T13:14:16;1;1;
49462;PMS5003;35357;51.722;0.500;2023-07-09T13:16:46;1;1;
49462;PMS5003;35357;51.722;0.500;2023-07-09T13:19:13;3;1;
49462;PMS5003;35357;51.722;0.500;2023-07-09T13:21:41;4;3;
49462;PMS5003;35357;51.722;0.500;2023-07-09T13:24:13;3;3;
49462;PMS5003;35357;51.722;0.500;2023-07-09T13:26:42;5;4;
49462;PMS5003;35357;51.722;0.500;2023-07-09T13:29:12;4;4;
49462;PMS5003;35357;51.722;0.500;2023-07-09T13:31:40;1;1;
49462;PMS5003;35357;51.722;0.500;2023-07-09T13:34:08;1;1;
49462;PMS5003;35357;51.722;0.500;2023-07-09T13:36:45;2;2;
49462;PMS5003;35357;51.722;0.500;2023-07-09T13:39:13;3;1;
49462;PMS5003;35357;51.722;0.500;2023-07-09T13:41:41;3;3;
49462;PMS5003;35357;51.722;0.500;2023-07-09T13:44:10;2;2;
49462;PMS5003;35357;51.722;0.500;2023-07-09T13:46:39;4;4;
49462;PMS5003;35357;51.722;0.500;2023-07-09T13:49:08;4;3;
49462;PMS5003;35357;51.722;0.500;2023-07-09T13:51:37;1;1;
49462;PMS5003;35357;51.722;0.500;2023-07-09T13:54:09;2;1;
49462;PMS5003;35357;51.722;0.500;2023-07-09T13:56:42;2;2;
49462;PMS5003;35357;51.722;0.500;2023-07-09T13:59:13;1;1;
49462;PMS5003;35357;51.722;0.500;2023-07-09T14:01:41;3;3;
49462;PMS5003;35357;51.722;0.500;2023-07-09T14:04:09;2;2;
49462;PMS5003;35357;51.722;0.500;2023-07-09T14:06:39;1;1;
49462;PMS5003;35357;51.722;0.500;2023-07-09T14:09:06;3;3;
49462;PMS5003;35357;51.722;0.500;2023-07-09T14:11:35;6;5;
49462;PMS5003;35357;51.722;0.500;2023-07-09T14:14:10;4;4;
49462;PMS5003;35357;51.722;0.500;2023-07-09T14:16:43;5;5;
49462;PMS5003;35357;51.722;0.500;2023-07-09T14:19:12;3;3;
49462;PMS5003;35357;51.722;0.500;2023-07-09T14:21:40;4;4;
49462;PMS5003;35357;51.722;0.500;2023-07-09T14:24:14;3;3;
49462;PMS5003;35357;51.722;0.500;2023-07-09T14:26:45;3;2;
49462;PMS5003;35357;51.722;0.500;2023-07-09T14:29:12;3;3;
49462;PMS5003;35357;51.722;0.500;2023-07-09T14:31:40;2;2;
49462;PMS5003;35357;51.722;0.500;2023-07-09T14:34:16;5;4;
49462;PMS5003;35357;51.722;0.500;2023-07-09T14:36:47;4;4;
49462;PMS5003;35357;51.722;0.500;2023-07-09T14:39:14;2;2;
49462;PMS5003;35357;51.722;0.500;2023-07-09T14:41:41;4;4;
49462;PMS5003;35357;51.722;0.500;2023-07-09T14:44:20;2;2;
49462;PMS5003;35357;51.722;0.500;2023-07-09T14:46:50;5;3;
49462;PMS5003;35357;51.722;0.500;2023-07-09T14:49:17;5;4;
49462;PMS5003;35357;51.722;0.500;2023-07-09T14:51:45;3;3;
49462;PMS5003;35357;51.722;0.500;2023-07-09T14:54:18;3;3;
49462;PMS5003;35357;51.722;0.500;2023-07-09T14:56:46;3;3;
49462;PMS5003;35357;51.722;0.500;2023-07-09T14:59:13;2;2;
49462;PMS5003;35357;51.722;0.500;2023-07-09T15:01:41;3;3;
49462;PMS5003;35357;51.722;0.500;2023-07-09T15:04:22;3;3;
49462;PMS5003;35357;51.722;0.500;2023-07-09T15:06:55;5;5;
49462;PMS5003;35357;51.722;0.500;2023-07-09T15:09:23;3;2;
49462;PMS5003;35357;51.722;0.500;2023-07-09T15:11:52;2;2;
49462;PMS5003;35357;51.722;0.500;2023-07-09T15:14:21;3;2;
49462;PMS5003;35357;51.722;0.500;2023-07-09T15:16:50;4;4;
49462;PMS5003;35357;51.722;0.500;2023-07-09T15:19:19;4;4;
49462;PMS5003;35357;51.722;0.500;2023-07-09T15:21:48;3;3;
49462;PMS5003;35357;51.722;0.500;2023-07-09T15:24:18;6;6;
49462;PMS5003;35357;51.722;0.500;2023-07-09T15:26:51;2;2;
49462;PMS5003;35357;51.722;0.500;2023-07-09T15:29:20;2;2;
49462;PMS5003;35357;51.722;0.500;2023-07-09T15:31:48;4;4;
49462;PMS5003;35357;51.722;0.500;2023-07-09T15:34:17;5;3;
49462;PMS5003;35357;51.722;0.500;2023-07-09T15:36:45;3;3;
49462;PMS5003;35357;51.722;0.500;2023-07-09T15:39:15;4;4;
49462;PMS5003;35357;51.722;0.500;2023-07-09T15:41:43;2;2;
49462;PMS5003;35357;51.722;0.500;2023-07-09T15:44:11;3;3;
49462;PMS5003;35357;51.722;0.500;2023-07-09T15:46:38;3;3;
49462;PMS5003;35357;51.722;0.500;2023-07-09T15:49:06;4;4;
49462;PMS5003;35357;51.722;0.500;2023-07-09T15:51:36;3;3;
49462;PMS5003;35357;51.722;0.500;2023-07-09T15:54:04;4;3;
49462;PMS5003;35357;51.722;0.500;2023-07-09T15:56:37;5;5;
49462;PMS5003;35357;51.722;0.500;2023-07-09T15:59:04;2;2;
49462;PMS5003;35357;51.722;0.500;2023-07-09T16:01:31;3;3;
49462;PMS5003;35357;51.722;0.500;2023-07-09T16:03:59;3;3;
49462;PMS5003;35357;51.722;0.500;2023-07-09T16:06:27;4;4;
49462;PMS5003;35357;51.722;0.500;2023-07-09T16:08:54;3;3;
49462;PMS5003;35357;51.722;0.500;2023-07-09T16:11:22;1;1;
49462;PMS5003;35357;51.722;0.500;2023-07-09T16:13:50;3;3;
49462;PMS5003;35357;51.722;0.500;2023-07-09T16:16:19;7;3;
49462;PMS5003;35357;51.722;0.500;2023-07-09T16:18:48;3;3;
49462;PMS5003;35357;51.722;0.500;2023-07-09T16:21:21;2;2;
49462;PMS5003;35357;51.722;0.500;2023-07-09T16:23:50;5;4;
49462;PMS5003;35357;51.722;0.500;2023-07-09T16:26:18;3;3;
49462;PMS5003;35357;51.722;0.500;2023-07-09T16:28:46;1;1;
49462;PMS5003;35357;51.722;0.500;2023-07-09T16:31:13;4;4;
49462;PMS5003;35357;51.722;0.500;2023-07-09T16:33:40;2;2;
49462;PMS5003;35357;51.722;0.500;2023-07-09T16:36:09;2;2;
49462;PMS5003;35357;51.722;0.500;2023-07-09T16:38:39;3;3;
49462;PMS5003;35357;51.722;0.500;2023-07-09T16:41:07;2;2;
49462;PMS5003;35357;51.722;0.500;2023-07-09T16:43:36;4;3;
49462;PMS5003;35357;51.722;0.500;2023-07-09T16:46:07;3;3;
49462;PMS5003;35357;51.722;0.500;2023-07-09T16:48:40;4;4;
49462;PMS5003;35357;51.722;0.500;2023-07-09T16:51:07;3;3;
49462;PMS5003;35357;51.722;0.500;2023-07-09T16:53:35;2;2;
49462;PMS5003;35357;51.722;0.500;2023-07-09T16:56:01;2;2;
49462;PMS5003;35357;51.722;0.500;2023-07-09T16:58:30;2;2;